Annapolis Royal, Canada
Current Conditions -  °F | °C
As of 8:00 PM on Monday 24 Nov 2014 (Local Time) from CYZX Reporting Station
Light Rain Light Rain  
Wind Chill: 61°   Ceiling: 2700
Heat Index: 61°   Visibility: 5mi
Dew Point: 57°   Wind: 20mph
Humidity: 88%   Direction: 190°S
Pressure: 29.73"   Gusts: 28mph
Location:  44.73°N, 65.52°W
Report Text: CYZX 250000Z 19017G24KT 5SM -RA BR OVC027 16/14 A2973 RMK SC8 WNDY HILL 19020G31KT SLP070
Loading
Personal Weather Stations






























Interactive Weather Map New forecast layout! Learn more

10-Day Weather Forecast

Advertisements
Track Severe Weather on mobile